createdAt,value
2022-09-01T00:00:14.953Z,99417.00
2022-09-01T00:03:01.454Z,99419.00
2022-09-01T00:05:30.098Z,99418.20
2022-09-01T00:07:57.695Z,99421.00
2022-09-01T00:10:25.509Z,99419.00
2022-09-01T00:12:53.363Z,99417.40
2022-09-01T00:15:21.839Z,99414.40
2022-09-01T00:17:49.618Z,99414.00
2022-09-01T00:20:20.446Z,99412.20
2022-09-01T00:22:49.480Z,99416.40
2022-09-01T00:25:20.038Z,99418.00
2022-09-01T00:27:49.345Z,99418.80
2022-09-01T00:30:21.874Z,99417.00
2022-09-01T00:32:49.549Z,99418.40
2022-09-01T00:35:19.679Z,99412.20
2022-09-01T00:37:47.691Z,99416.80
2022-09-01T00:40:18.316Z,99414.40
2022-09-01T00:42:48.880Z,99416.80
2022-09-01T00:45:17.114Z,99413.60
2022-09-01T00:47:44.984Z,99413.40
2022-09-01T00:50:16.799Z,99410.80
2022-09-01T00:52:54.637Z,99406.00
2022-09-01T00:55:34.290Z,99409.40
2022-09-01T00:58:05.332Z,99398.20
2022-09-01T01:00:40.874Z,99405.80
2022-09-01T01:03:14.615Z,99399.60
2022-09-01T01:05:54.348Z,99407.00
2022-09-01T01:08:34.081Z,99405.00
2022-09-01T01:11:17.749Z,99403.80
2022-09-01T01:14:00.843Z,99402.60
2022-09-01T01:16:29.721Z,99400.00
2022-09-01T01:18:58.125Z,99399.40
2022-09-01T01:21:54.821Z,99400.80
2022-09-01T01:24:34.837Z,99403.60
2022-09-01T01:27:03.435Z,99406.60
2022-09-01T01:29:36.068Z,99404.80
2022-09-01T01:32:12.357Z,99404.60
2022-09-01T01:34:43.518Z,99399.80
2022-09-01T01:37:14.358Z,99400.60
2022-09-01T01:39:44.363Z,99397.80
2022-09-01T01:42:12.329Z,99400.40
2022-09-01T01:44:40.805Z,99403.80
2022-09-01T01:47:13.338Z,99399.60
2022-09-01T01:49:44.789Z,99394.80
2022-09-01T01:52:17.642Z,99395.40
2022-09-01T01:54:46.563Z,99392.80
2022-09-01T01:57:17.241Z,99394.60
2022-09-01T01:59:45.636Z,99391.00
2022-09-01T02:02:13.403Z,99391.60
2022-09-01T02:04:41.652Z,99391.00
2022-09-01T02:07:13.229Z,99389.20
2022-09-01T02:09:44.153Z,99390.80
2022-09-01T02:12:12.237Z,99387.40
2022-09-01T02:14:43.878Z,99385.20
2022-09-01T02:17:11.589Z,99388.40
2022-09-01T02:19:42.904Z,99381.60
2022-09-01T02:22:11.379Z,99382.00
2022-09-01T02:24:42.028Z,99389.00
2022-09-01T02:27:09.855Z,99387.40
2022-09-01T02:29:43.149Z,99385.40
2022-09-01T02:32:11.780Z,99380.00
2022-09-01T02:34:39.966Z,99384.80
2022-09-01T02:37:07.568Z,99387.80
2022-09-01T02:39:35.133Z,99385.40
2022-09-01T02:42:02.902Z,99387.20
2022-09-01T02:44:32.208Z,99384.60
2022-09-01T02:47:00.955Z,99382.80
2022-09-01T02:49:30.019Z,99384.00
2022-09-01T02:52:01.496Z,99378.00
2022-09-01T02:54:32.552Z,99377.60
2022-09-01T02:57:01.490Z,99376.80
2022-09-01T02:59:30.692Z,99377.20
2022-09-01T03:01:58.562Z,99377.80
2022-09-01T03:04:27.394Z,99381.20
2022-09-01T03:06:58.904Z,99382.60
2022-09-01T03:09:27.075Z,99380.00
2022-09-01T03:11:55.383Z,99377.80
2022-09-01T03:14:24.261Z,99377.20
2022-09-01T03:16:52.615Z,99378.20
2022-09-01T03:19:20.393Z,99373.60
2022-09-01T03:21:48.765Z,99372.80
2022-09-01T03:24:18.722Z,99378.20
2022-09-01T03:26:50.379Z,99378.20
2022-09-01T03:29:19.589Z,99380.00
2022-09-01T03:31:48.554Z,99377.00
2022-09-01T03:34:21.665Z,99377.60
2022-09-01T03:36:50.950Z,99375.40
2022-09-01T03:39:19.788Z,99379.00
2022-09-01T03:41:47.820Z,99380.00
2022-09-01T03:44:16.572Z,99384.00
2022-09-01T03:46:45.171Z,99384.20
2022-09-01T03:49:15.632Z,99381.40
2022-09-01T03:51:45.185Z,99383.00
2022-09-01T03:54:13.589Z,99378.60
2022-09-01T03:56:42.080Z,99378.80
2022-09-01T03:59:17.309Z,99382.60
2022-09-01T04:01:46.446Z,99388.20
2022-09-01T04:04:14.952Z,99389.80
2022-09-01T04:06:45.765Z,99389.40
2022-09-01T04:09:14.055Z,99393.80
2022-09-01T04:11:45.709Z,99393.40
2022-09-01T04:14:14.216Z,99398.40
2022-09-01T04:17:03.380Z,99391.00
2022-09-01T04:19:38.593Z,99395.20
2022-09-01T04:22:08.226Z,99393.00
2022-09-01T04:24:35.910Z,99391.60
2022-09-01T04:27:04.432Z,99396.00
2022-09-01T04:29:32.968Z,99395.20
2022-09-01T04:32:09.766Z,99396.40
2022-09-01T04:34:40.411Z,99396.20
2022-09-01T04:37:18.086Z,99397.60
2022-09-01T04:39:56.107Z,99389.20
2022-09-01T04:42:32.547Z,99399.80
2022-09-01T04:45:08.962Z,99396.20
2022-09-01T04:47:42.101Z,99398.20
2022-09-01T04:50:17.576Z,99400.40
2022-09-01T04:52:46.360Z,99397.00
2022-09-01T04:55:18.545Z,99396.40
2022-09-01T04:57:49.458Z,99393.80
2022-09-01T05:00:23.662Z,99392.00
2022-09-01T05:03:04.674Z,99389.60
2022-09-01T05:05:45.997Z,99393.00
2022-09-01T05:08:23.493Z,99394.80
2022-09-01T05:10:55.792Z,99395.00
2022-09-01T05:13:24.562Z,99391.80
2022-09-01T05:16:13.058Z,99396.80
2022-09-01T05:18:47.885Z,99395.80
2022-09-01T05:21:22.353Z,99397.60
2022-09-01T05:23:51.923Z,99404.60
2022-09-01T05:26:26.703Z,99404.60
2022-09-01T05:28:59.585Z,99398.40
2022-09-01T05:31:37.946Z,99389.00
2022-09-01T05:34:09.968Z,99394.00
2022-09-01T05:36:44.261Z,99393.00
2022-09-01T05:39:12.776Z,99393.20
2022-09-01T05:41:41.365Z,99390.80
2022-09-01T05:44:11.310Z,99390.40
2022-09-01T05:46:40.295Z,99390.60
2022-09-01T05:49:13.622Z,99387.00
2022-09-01T05:51:50.850Z,99389.60
2022-09-01T05:54:27.243Z,99392.80
2022-09-01T05:57:12.836Z,99391.80
2022-09-01T05:59:53.507Z,99393.20
2022-09-01T06:02:24.134Z,99400.40
2022-09-01T06:04:55.625Z,99400.40
2022-09-01T06:07:26.572Z,99403.60
2022-09-01T06:09:54.256Z,99406.00
2022-09-01T06:12:23.953Z,99405.20
2022-09-01T06:14:55.109Z,99406.80
2022-09-01T06:17:29.687Z,99405.40
2022-09-01T06:19:58.000Z,99404.60
2022-09-01T06:22:28.794Z,99404.80
2022-09-01T06:25:01.871Z,99399.00
2022-09-01T06:27:31.062Z,99399.80
2022-09-01T06:29:58.851Z,99400.20
2022-09-01T06:32:27.089Z,99411.80
2022-09-01T06:34:58.214Z,99400.80
2022-09-01T06:37:26.924Z,99406.80
2022-09-01T06:39:54.625Z,99409.40
2022-09-01T06:42:23.371Z,99409.80
2022-09-01T06:44:51.223Z,99411.00
2022-09-01T06:47:19.429Z,99417.00
2022-09-01T06:49:47.049Z,99410.60
2022-09-01T06:52:16.072Z,99417.00
2022-09-01T06:54:44.342Z,99418.00
2022-09-01T07:00:00.362Z,99422.20
2022-09-01T07:02:30.341Z,99427.80
2022-09-01T07:05:02.837Z,99430.80
2022-09-01T07:10:27.988Z,99426.80
2022-09-01T07:13:06.869Z,99431.20
2022-09-01T07:18:30.950Z,99421.40
2022-09-01T07:24:08.684Z,99425.20
2022-09-01T07:26:46.689Z,99423.40
2022-09-01T07:29:16.515Z,99423.80
2022-09-01T07:32:43.415Z,99427.40
2022-09-01T07:34:40.128Z,99430.20
2022-09-01T07:42:30.264Z,99420.60
2022-09-01T07:45:47.250Z,99431.20
2022-09-01T07:49:02.562Z,99425.80
2022-09-01T07:54:02.466Z,99432.40
2022-09-01T07:56:30.501Z,99431.80
2022-09-01T07:58:58.963Z,99430.00
2022-09-01T08:01:28.104Z,99429.80
2022-09-01T08:04:00.326Z,99430.20
2022-09-01T08:06:37.785Z,99422.80
2022-09-01T08:09:07.373Z,99429.80
2022-09-01T08:12:01.042Z,99434.60
2022-09-01T08:14:27.583Z,99427.80
2022-09-01T08:16:55.389Z,99425.40
2022-09-01T08:19:23.177Z,99426.60
2022-09-01T08:21:50.869Z,99431.00
2022-09-01T08:24:19.545Z,99430.00
2022-09-01T08:26:47.195Z,99434.60
2022-09-01T08:29:14.787Z,99434.20
2022-09-01T08:31:42.547Z,99434.40
2022-09-01T08:34:12.662Z,99431.20
2022-09-01T08:36:40.349Z,99430.80
2022-09-01T08:39:08.134Z,99428.20
2022-09-01T08:42:08.843Z,99432.80
2022-09-01T08:45:13.542Z,99427.00
2022-09-01T08:48:08.325Z,99431.00
2022-09-01T08:50:29.248Z,99418.60
2022-09-01T08:53:23.239Z,99432.40
2022-09-01T08:55:58.671Z,99430.60
2022-09-01T08:58:33.007Z,99432.00
2022-09-01T09:01:11.961Z,99432.40
2022-09-01T09:04:28.381Z,99429.60
2022-09-01T09:07:42.875Z,99433.80
2022-09-01T09:10:16.513Z,99429.20
2022-09-01T09:13:08.357Z,99431.00
2022-09-01T09:16:13.223Z,99431.00
2022-09-01T09:19:17.014Z,99432.40
2022-09-01T09:21:48.969Z,99433.20
2022-09-01T09:24:52.650Z,99430.00
2022-09-01T09:27:35.424Z,99427.60
2022-09-01T09:30:35.641Z,99434.80
2022-09-01T09:33:49.809Z,99428.80
2022-09-01T09:36:22.188Z,99423.80
2022-09-01T09:39:16.670Z,99421.00
2022-09-01T09:42:07.879Z,99422.80
2022-09-01T09:44:45.103Z,99420.00
2022-09-01T09:47:45.151Z,99421.20
2022-09-01T09:50:24.488Z,99423.00
2022-09-01T09:53:11.544Z,99414.00
2022-09-01T09:56:04.407Z,99418.60
2022-09-01T09:58:43.020Z,99416.80
2022-09-01T10:01:17.738Z,99412.80
2022-09-01T10:03:50.540Z,99419.00
2022-09-01T10:06:37.864Z,99415.20
2022-09-01T10:09:16.182Z,99409.60
2022-09-01T10:11:51.520Z,99415.80
2022-09-01T10:14:52.073Z,99411.80
2022-09-01T10:17:28.334Z,99412.00
2022-09-01T10:20:06.147Z,99413.60
2022-09-01T10:22:37.807Z,99416.00
2022-09-01T10:25:14.053Z,99410.20
2022-09-01T10:27:47.515Z,99409.60
2022-09-01T10:30:21.977Z,99412.80
2022-09-01T10:33:06.816Z,99409.80
2022-09-01T10:35:51.852Z,99409.20
2022-09-01T10:38:25.541Z,99406.00
2022-09-01T10:41:09.122Z,99408.40
2022-09-01T10:43:48.914Z,99401.60
2022-09-01T10:46:25.586Z,99402.00
2022-09-01T10:49:07.222Z,99399.20
2022-09-01T10:51:51.578Z,99403.60
2022-09-01T10:54:57.371Z,99404.00
2022-09-01T10:57:43.632Z,99399.40
2022-09-01T11:00:36.643Z,99406.40
2022-09-01T11:03:31.740Z,99404.20
2022-09-01T11:06:13.347Z,99403.00
2022-09-01T11:09:00.841Z,99399.60
2022-09-01T11:11:47.335Z,99394.20
2022-09-01T11:14:26.521Z,99396.60
2022-09-01T11:17:27.668Z,99392.60
2022-09-01T11:20:00.181Z,99392.20
2022-09-01T11:22:34.098Z,99397.20
2022-09-01T11:25:48.533Z,99394.20
2022-09-01T11:28:40.444Z,99389.80
2022-09-01T11:31:09.401Z,99393.60
2022-09-01T11:34:14.814Z,99392.40
2022-09-01T11:36:48.649Z,99389.00
2022-09-01T11:39:30.040Z,99385.60
2022-09-01T11:42:21.197Z,99388.40
2022-09-01T11:45:05.929Z,99382.20
2022-09-01T11:47:45.729Z,99383.00
2022-09-01T11:50:16.486Z,99388.20
2022-09-01T11:53:04.669Z,99388.60
2022-09-01T11:55:40.764Z,99377.40
2022-09-01T11:58:29.008Z,99382.00
2022-09-01T12:01:21.368Z,99382.40
2022-09-01T12:03:53.153Z,99382.20
2022-09-01T12:06:26.464Z,99382.60
2022-09-01T12:08:59.369Z,99380.40
2022-09-01T12:11:34.772Z,99376.80
2022-09-01T12:14:07.673Z,99375.80
2022-09-01T12:16:42.542Z,99376.60
2022-09-01T12:19:28.905Z,99375.00
2022-09-01T12:22:17.444Z,99372.80
2022-09-01T12:24:49.772Z,99374.60
2022-09-01T12:27:17.844Z,99375.60
2022-09-01T12:29:47.293Z,99375.00
2022-09-01T12:32:17.106Z,99370.80
2022-09-01T12:34:47.927Z,99368.80
2022-09-01T12:37:18.463Z,99362.20
2022-09-01T12:39:50.648Z,99368.20
2022-09-01T12:42:27.542Z,99369.60
2022-09-01T12:45:01.648Z,99361.40
2022-09-01T12:47:48.013Z,99362.80
2022-09-01T12:50:17.047Z,99359.80
2022-09-01T12:53:13.703Z,99356.60
2022-09-01T12:55:59.658Z,99360.40
2022-09-01T12:58:30.322Z,99363.60
2022-09-01T13:01:07.179Z,99363.60
2022-09-01T13:04:16.500Z,99362.20
2022-09-01T13:06:44.033Z,99363.80
2022-09-01T13:09:11.765Z,99362.60
2022-09-01T13:14:31.209Z,99362.60
2022-09-01T13:16:59.228Z,99362.00
2022-09-01T13:19:30.226Z,99359.00
2022-09-01T13:21:58.459Z,99361.40
2022-09-01T13:24:30.226Z,99367.00
2022-09-01T13:29:47.414Z,99372.20
2022-09-01T13:32:19.041Z,99378.80
2022-09-01T13:34:50.748Z,99380.60
2022-09-01T13:37:21.758Z,99385.60
2022-09-01T13:39:50.561Z,99378.00
2022-09-01T13:42:18.910Z,99377.80
2022-09-01T13:44:49.601Z,99375.60
2022-09-01T13:48:14.788Z,99376.40
2022-09-01T13:50:15.539Z,99373.00
2022-09-01T13:52:54.998Z,99379.40
2022-09-01T13:55:29.421Z,99377.60
2022-09-01T13:57:59.227Z,99377.40
2022-09-01T14:00:32.154Z,99377.00
2022-09-01T14:03:07.460Z,99381.40
2022-09-01T14:05:41.395Z,99383.80
2022-09-01T14:08:12.237Z,99376.40
2022-09-01T14:10:44.444Z,99378.20
2022-09-01T14:13:13.407Z,99375.80
2022-09-01T14:15:42.021Z,99377.60
2022-09-01T14:18:09.729Z,99368.20
2022-09-01T14:20:41.241Z,99368.00
2022-09-01T14:23:10.934Z,99368.60
2022-09-01T14:25:48.727Z,99362.00
2022-09-01T14:28:20.559Z,99369.40
2022-09-01T14:33:19.643Z,99375.00
2022-09-01T14:35:48.628Z,99375.20
2022-09-01T14:38:16.986Z,99368.40
2022-09-01T14:40:49.115Z,99365.40
2022-09-01T14:43:16.885Z,99360.20
2022-09-01T14:45:48.165Z,99364.60
2022-09-01T14:48:20.834Z,99360.20
2022-09-01T14:50:50.930Z,99353.80
2022-09-01T14:53:19.471Z,99357.40
2022-09-01T14:55:47.496Z,99355.40
2022-09-01T14:58:15.248Z,99352.40
2022-09-01T15:00:44.187Z,99354.00
2022-09-01T15:03:11.828Z,99347.80
2022-09-01T15:05:41.029Z,99344.40
2022-09-01T15:08:15.508Z,99347.20
2022-09-01T15:10:45.193Z,99351.40
2022-09-01T15:13:13.705Z,99347.60
2022-09-01T15:15:42.233Z,99347.00
2022-09-01T15:18:10.816Z,99347.00
2022-09-01T15:20:45.881Z,99347.00
2022-09-01T15:23:23.614Z,99346.00
2022-09-01T15:25:54.998Z,99347.00
2022-09-01T15:28:22.832Z,99342.80
2022-09-01T15:30:54.393Z,99347.80
2022-09-01T15:33:22.188Z,99349.00
2022-09-01T15:35:49.829Z,99341.80
2022-09-01T15:38:18.208Z,99347.20
2022-09-01T15:40:55.463Z,99355.60
2022-09-01T15:43:28.525Z,99349.80
2022-09-01T15:45:59.081Z,99347.80
2022-09-01T15:48:28.948Z,99352.00
2022-09-01T15:51:51.085Z,99351.60
2022-09-01T15:54:20.576Z,99351.20
2022-09-01T15:56:49.105Z,99349.80
2022-09-01T15:59:16.762Z,99355.60
2022-09-01T16:01:46.971Z,99353.60
2022-09-01T16:04:19.935Z,99354.60
2022-09-01T16:06:49.508Z,99354.40
2022-09-01T16:09:21.206Z,99355.40
2022-09-01T16:11:48.982Z,99353.80
2022-09-01T16:14:17.062Z,99358.40
2022-09-01T16:17:20.194Z,99357.40
2022-09-01T16:20:02.462Z,99357.00
2022-09-01T16:22:36.717Z,99360.00
2022-09-01T16:25:22.459Z,99357.60
2022-09-01T16:27:50.712Z,99360.60
2022-09-01T16:30:27.685Z,99363.80
2022-09-01T16:32:59.549Z,99366.00
2022-09-01T16:35:47.985Z,99366.80
2022-09-01T16:38:28.592Z,99376.80
2022-09-01T16:41:18.528Z,99377.60
2022-09-01T16:44:26.455Z,99376.60
2022-09-01T16:47:28.197Z,99379.60
2022-09-01T16:50:17.892Z,99379.40
2022-09-01T16:53:14.006Z,99380.00
2022-09-01T16:56:10.381Z,99384.60
2022-09-01T16:59:12.154Z,99381.80
2022-09-01T17:02:27.983Z,99382.00
2022-09-01T17:05:32.457Z,99385.80
2022-09-01T17:08:26.010Z,99385.60
2022-09-01T17:11:25.843Z,99391.20
2022-09-01T17:13:55.818Z,99388.40
2022-09-01T17:16:42.397Z,99394.00
2022-09-01T17:19:19.161Z,99395.80
2022-09-01T17:22:06.471Z,99394.00
2022-09-01T17:24:46.228Z,99395.20
2022-09-01T17:27:48.552Z,99399.00
2022-09-01T17:30:17.140Z,99401.00
2022-09-01T17:33:26.201Z,99404.40
2022-09-01T17:36:05.544Z,99408.20
2022-09-01T17:39:00.987Z,99408.80
2022-09-01T17:41:52.828Z,99411.60
2022-09-01T17:44:39.250Z,99412.60
2022-09-01T17:47:32.541Z,99419.00
2022-09-01T17:50:08.109Z,99424.00
2022-09-01T17:53:10.304Z,99427.20
2022-09-01T17:55:54.388Z,99430.80
2022-09-01T17:59:06.671Z,99431.80
2022-09-01T18:01:49.905Z,99438.40
2022-09-01T18:05:04.246Z,99439.80
2022-09-01T18:07:44.656Z,99444.40
2022-09-01T18:10:32.381Z,99442.40
2022-09-01T18:13:05.804Z,99446.60
2022-09-01T18:15:55.301Z,99446.00
2022-09-01T18:18:41.325Z,99450.80
2022-09-01T18:21:18.199Z,99456.00
2022-09-01T18:23:54.674Z,99458.00
2022-09-01T18:26:32.575Z,99462.40
2022-09-01T18:29:04.842Z,99463.60
2022-09-01T18:32:03.426Z,99462.40
2022-09-01T18:35:02.754Z,99462.20
2022-09-01T18:37:48.164Z,99465.80
2022-09-01T18:40:34.848Z,99466.00
2022-09-01T18:43:23.129Z,99465.60
2022-09-01T18:46:06.112Z,99467.20
2022-09-01T18:49:03.966Z,99472.00
2022-09-01T18:52:22.780Z,99470.80
2022-09-01T18:55:34.016Z,99473.80
2022-09-01T18:58:19.709Z,99478.60
2022-09-01T19:01:03.552Z,99478.40
2022-09-01T19:03:46.407Z,99482.40
2022-09-01T19:06:31.244Z,99488.20
2022-09-01T19:09:24.266Z,99491.00
2022-09-01T19:12:36.018Z,99489.40
2022-09-01T19:15:40.360Z,99490.60
2022-09-01T19:18:43.659Z,99493.80
2022-09-01T19:21:27.101Z,99496.60
2022-09-01T19:24:13.464Z,99498.80
2022-09-01T19:26:47.663Z,99499.80
2022-09-01T19:29:27.420Z,99505.60
2022-09-01T19:32:02.443Z,99503.20
2022-09-01T19:34:38.679Z,99503.40
2022-09-01T19:37:07.072Z,99507.20
2022-09-01T19:39:43.798Z,99509.40
2022-09-01T19:42:45.137Z,99514.80
2022-09-01T19:45:56.866Z,99513.40
2022-09-01T19:49:11.041Z,99513.40
2022-09-01T19:51:53.134Z,99516.20
2022-09-01T19:54:38.549Z,99513.20
2022-09-01T19:57:17.996Z,99513.20
2022-09-01T19:59:54.022Z,99513.00
2022-09-01T20:02:25.051Z,99508.80
2022-09-01T20:05:15.056Z,99512.20
2022-09-01T20:07:54.003Z,99507.60
2022-09-01T20:10:49.682Z,99514.80
2022-09-01T20:13:55.787Z,99514.60
2022-09-01T20:16:32.699Z,99518.20
2022-09-01T20:19:34.929Z,99517.20
2022-09-01T20:22:33.621Z,99520.20
2022-09-01T20:25:11.279Z,99522.20
2022-09-01T20:27:57.117Z,99516.40
2022-09-01T20:30:40.003Z,99518.80
2022-09-01T20:33:36.683Z,99515.60
2022-09-01T20:36:13.881Z,99517.40
2022-09-01T20:39:21.691Z,99515.40
2022-09-01T20:42:31.629Z,99518.60
2022-09-01T20:45:23.677Z,99514.60
2022-09-01T20:48:02.107Z,99516.20
2022-09-01T20:50:58.879Z,99515.40
2022-09-01T20:53:59.517Z,99514.20
2022-09-01T20:56:54.689Z,99519.80
2022-09-01T20:59:35.497Z,99516.40
2022-09-01T21:02:43.886Z,99521.40
2022-09-01T21:05:39.914Z,99518.20
2022-09-01T21:08:34.452Z,99519.60
2022-09-01T21:11:28.606Z,99519.00
2022-09-01T21:14:45.129Z,99528.20
2022-09-01T21:17:47.825Z,99525.80
2022-09-01T21:21:01.940Z,99527.40
2022-09-01T21:23:30.368Z,99523.60
2022-09-01T21:25:59.820Z,99525.20
2022-09-01T21:28:29.271Z,99525.60
2022-09-01T21:30:59.976Z,99524.00
2022-09-01T21:33:32.916Z,99524.40
2022-09-01T21:36:02.000Z,99522.60
2022-09-01T21:38:29.765Z,99522.00
2022-09-01T21:41:00.162Z,99522.80
2022-09-01T21:43:37.373Z,99521.00
2022-09-01T21:46:08.071Z,99520.20
2022-09-01T21:48:36.388Z,99524.60
2022-09-01T21:51:04.879Z,99524.00
2022-09-01T21:53:33.225Z,99522.20
2022-09-01T21:56:01.237Z,99525.60
2022-09-01T21:58:29.269Z,99525.00
2022-09-01T22:00:58.433Z,99524.20
2022-09-01T22:03:26.170Z,99522.00
2022-09-01T22:05:53.817Z,99515.80
2022-09-01T22:08:21.992Z,99518.40
2022-09-01T22:10:52.824Z,99520.00
2022-09-01T22:13:24.096Z,99519.60
2022-09-01T22:15:53.983Z,99515.60
2022-09-01T22:18:22.604Z,99515.20
2022-09-01T22:20:50.237Z,99514.40
2022-09-01T22:23:18.194Z,99512.60
2022-09-01T22:25:47.812Z,99518.60
2022-09-01T22:28:16.118Z,99518.80
2022-09-01T22:30:46.821Z,99520.40
2022-09-01T22:33:15.856Z,99513.20
2022-09-01T22:35:48.836Z,99517.00
2022-09-01T22:38:18.629Z,99517.20
2022-09-01T22:40:55.858Z,99517.80
2022-09-01T22:43:27.058Z,99511.20
2022-09-01T22:45:56.592Z,99513.00
2022-09-01T22:48:27.208Z,99511.00
2022-09-01T22:50:55.037Z,99514.80
2022-09-01T22:53:23.618Z,99512.00
2022-09-01T22:55:52.681Z,99510.00
2022-09-01T22:58:20.844Z,99513.00
2022-09-01T23:00:56.322Z,99517.60
2022-09-01T23:03:24.293Z,99506.00
2022-09-01T23:06:08.236Z,99511.40
2022-09-01T23:08:36.913Z,99507.20
2022-09-01T23:11:06.299Z,99506.40
2022-09-01T23:13:35.587Z,99505.80
2022-09-01T23:16:08.209Z,99504.20
2022-09-01T23:18:39.897Z,99501.80
2022-09-01T23:21:12.362Z,99503.20
2022-09-01T23:23:41.189Z,99499.40
2022-09-01T23:26:12.985Z,99497.20
2022-09-01T23:28:42.896Z,99500.00
2022-09-01T23:31:15.912Z,99497.60
2022-09-01T23:33:44.544Z,99500.40
2022-09-01T23:36:18.349Z,99497.80
2022-09-01T23:38:48.544Z,99495.60
2022-09-01T23:41:23.294Z,99497.60
2022-09-01T23:43:53.740Z,99497.20
2022-09-01T23:46:28.932Z,99498.40
2022-09-01T23:48:57.001Z,99492.80
2022-09-01T23:51:25.444Z,99489.60
2022-09-01T23:53:53.884Z,99489.40
2022-09-01T23:56:25.640Z,99492.80
2022-09-01T23:58:53.714Z,99487.40
